createdAt,value
2023-03-07T00:00:50.416Z,98.40
2023-03-07T00:03:22.739Z,98.50
2023-03-07T00:06:02.856Z,98.40
2023-03-07T00:08:34.163Z,98.50
2023-03-07T00:11:12.828Z,98.40
2023-03-07T00:13:46.072Z,98.30
2023-03-07T00:16:18.457Z,98.40
2023-03-07T00:18:50.552Z,98.40
2023-03-07T00:21:28.747Z,98.40
2023-03-07T00:24:00.245Z,98.40
2023-03-07T00:26:35.974Z,98.40
2023-03-07T00:29:08.577Z,98.30
2023-03-07T00:31:40.254Z,98.40
2023-03-07T00:34:11.364Z,98.30
2023-03-07T00:36:44.769Z,98.20
2023-03-07T00:39:16.222Z,98.30
2023-03-07T00:41:49.712Z,98.40
2023-03-07T00:44:20.918Z,98.40
2023-03-07T00:46:52.614Z,98.40
2023-03-07T00:49:23.728Z,98.70
2023-03-07T00:51:54.503Z,98.60
2023-03-07T00:54:25.895Z,98.60
2023-03-07T00:56:59.403Z,98.60
2023-03-07T00:59:30.632Z,98.60
2023-03-07T01:02:01.907Z,98.60
2023-03-07T01:04:37.998Z,98.90
2023-03-07T01:07:11.231Z,98.70
2023-03-07T01:09:42.519Z,98.60
2023-03-07T01:12:16.372Z,98.60
2023-03-07T01:14:48.974Z,98.80
2023-03-07T01:17:20.867Z,98.60
2023-03-07T01:19:52.264Z,98.70
2023-03-07T01:22:29.485Z,98.70
2023-03-07T01:25:01.002Z,98.60
2023-03-07T01:27:34.562Z,98.60
2023-03-07T01:30:07.460Z,98.60
2023-03-07T01:32:40.596Z,98.60
2023-03-07T01:35:12.835Z,98.70
2023-03-07T01:37:49.107Z,98.70
2023-03-07T01:40:22.669Z,98.70
2023-03-07T01:42:56.198Z,98.70
2023-03-07T01:45:58.039Z,98.60
2023-03-07T01:48:29.068Z,98.70
2023-03-07T01:51:00.485Z,98.70
2023-03-07T01:53:34.357Z,98.60
2023-03-07T01:56:05.640Z,98.50
2023-03-07T01:58:43.043Z,98.50
2023-03-07T02:01:19.575Z,98.40
2023-03-07T02:03:56.423Z,98.50
2023-03-07T02:06:31.349Z,98.50
2023-03-07T02:09:02.698Z,98.40
2023-03-07T02:11:39.561Z,98.40
2023-03-07T02:14:13.626Z,98.50
2023-03-07T02:16:44.966Z,98.50
2023-03-07T02:19:40.578Z,98.60
2023-03-07T02:22:15.062Z,98.60
2023-03-07T02:24:54.204Z,98.60
2023-03-07T02:27:33.426Z,98.50
2023-03-07T02:30:06.517Z,98.40
2023-03-07T02:32:37.849Z,98.60
2023-03-07T02:35:20.319Z,98.50
2023-03-07T02:38:00.349Z,98.60
2023-03-07T02:40:34.318Z,98.40
2023-03-07T02:43:09.837Z,98.40
2023-03-07T02:45:43.108Z,98.50
2023-03-07T02:48:14.269Z,98.50
2023-03-07T02:50:47.135Z,98.60
2023-03-07T02:53:21.279Z,98.80
2023-03-07T02:55:52.270Z,98.90
2023-03-07T02:58:32.104Z,98.80
2023-03-07T03:01:03.500Z,98.80
2023-03-07T03:03:36.014Z,99.00
2023-03-07T03:06:09.151Z,98.90
2023-03-07T03:08:46.077Z,98.80
2023-03-07T03:11:16.842Z,98.90
2023-03-07T03:13:52.858Z,98.90
2023-03-07T03:16:23.666Z,98.80
2023-03-07T03:18:57.506Z,98.80
2023-03-07T03:21:29.400Z,98.90
2023-03-07T03:24:09.913Z,98.70
2023-03-07T03:26:41.963Z,98.70
2023-03-07T03:29:16.446Z,98.60
2023-03-07T03:31:48.323Z,98.50
2023-03-07T03:34:20.214Z,98.40
2023-03-07T03:36:51.237Z,98.40
2023-03-07T03:39:22.906Z,98.30
2023-03-07T03:41:58.218Z,98.30
2023-03-07T03:44:32.735Z,98.20
2023-03-07T03:47:04.576Z,98.10
2023-03-07T03:49:37.491Z,98.10
2023-03-07T03:52:09.950Z,97.90
2023-03-07T03:54:41.054Z,97.90
2023-03-07T03:57:12.991Z,97.80
2023-03-07T03:59:46.620Z,97.80
2023-03-07T04:02:19.631Z,97.90
2023-03-07T04:04:50.936Z,97.90
2023-03-07T04:07:22.445Z,97.90
2023-03-07T04:09:54.538Z,97.90
2023-03-07T04:12:24.975Z,97.80
2023-03-07T04:14:59.936Z,97.90
2023-03-07T04:17:30.971Z,97.80
2023-03-07T04:20:02.287Z,97.70
2023-03-07T04:22:33.832Z,97.80
2023-03-07T04:25:05.107Z,97.80
2023-03-07T04:27:36.545Z,97.80
2023-03-07T04:30:15.488Z,97.70
2023-03-07T04:32:48.262Z,97.80
2023-03-07T04:35:19.570Z,97.80
2023-03-07T04:37:50.820Z,97.80
2023-03-07T04:40:22.449Z,97.90
2023-03-07T04:42:56.318Z,97.90
2023-03-07T04:45:30.246Z,97.90
2023-03-07T04:48:01.722Z,98.00
2023-03-07T04:50:33.393Z,98.00
2023-03-07T04:53:07.713Z,98.00
2023-03-07T04:55:41.245Z,98.00
2023-03-07T04:58:15.909Z,98.10
2023-03-07T05:00:50.244Z,98.20
2023-03-07T05:03:21.540Z,98.20
2023-03-07T05:05:52.971Z,98.30
2023-03-07T05:08:27.410Z,98.40
2023-03-07T05:10:59.436Z,98.30
2023-03-07T05:13:32.864Z,98.20
2023-03-07T05:16:13.080Z,98.20
2023-03-07T05:18:45.457Z,98.30
2023-03-07T05:21:19.537Z,98.40
2023-03-07T05:23:50.764Z,98.40
2023-03-07T05:26:22.349Z,98.40
2023-03-07T05:28:56.672Z,98.50
2023-03-07T05:31:31.013Z,98.60
2023-03-07T05:34:03.765Z,98.60
2023-03-07T05:36:36.452Z,98.80
2023-03-07T05:39:14.187Z,99.00
2023-03-07T05:41:49.945Z,99.10
2023-03-07T05:44:29.023Z,99.20
2023-03-07T05:47:08.950Z,99.40
2023-03-07T05:49:42.280Z,99.40
2023-03-07T05:52:13.874Z,99.50
2023-03-07T05:54:44.460Z,99.50
2023-03-07T05:57:22.772Z,99.70
2023-03-07T05:59:53.895Z,99.60
2023-03-07T06:02:29.373Z,99.50
2023-03-07T06:05:01.663Z,99.50
2023-03-07T06:07:32.796Z,99.40
2023-03-07T06:10:05.673Z,99.40
2023-03-07T06:12:36.808Z,99.40
2023-03-07T06:15:09.082Z,99.40
2023-03-07T06:17:56.665Z,99.60
2023-03-07T06:20:28.892Z,99.40
2023-03-07T06:23:04.282Z,99.40
2023-03-07T06:25:36.430Z,99.40
2023-03-07T06:28:15.936Z,99.40
2023-03-07T06:30:51.587Z,99.20
2023-03-07T06:33:25.504Z,99.20
2023-03-07T06:35:56.441Z,99.10
2023-03-07T06:38:35.656Z,99.00
2023-03-07T06:41:07.105Z,99.00
2023-03-07T06:43:42.317Z,99.00
2023-03-07T06:46:13.406Z,98.80
2023-03-07T06:48:52.311Z,98.80
2023-03-07T06:51:29.278Z,98.60
2023-03-07T06:54:03.212Z,98.40
2023-03-07T06:56:35.630Z,97.80
2023-03-07T06:59:07.326Z,97.60
2023-03-07T07:01:39.167Z,97.30
2023-03-07T07:04:15.928Z,97.00
2023-03-07T07:06:46.875Z,96.70
2023-03-07T07:09:18.700Z,96.60
2023-03-07T07:11:49.450Z,96.20
2023-03-07T07:14:22.234Z,96.00
2023-03-07T07:16:54.129Z,95.80
2023-03-07T07:19:31.161Z,95.90
2023-03-07T07:22:12.086Z,95.60
2023-03-07T07:24:46.474Z,95.50
2023-03-07T07:27:19.077Z,95.40
2023-03-07T07:29:52.102Z,95.40
2023-03-07T07:32:23.670Z,95.40
2023-03-07T07:34:59.259Z,95.40
2023-03-07T07:37:32.084Z,95.40
2023-03-07T07:40:05.406Z,95.40
2023-03-07T07:42:39.362Z,95.20
2023-03-07T07:45:26.275Z,95.10
2023-03-07T07:47:57.794Z,94.90
2023-03-07T07:50:34.364Z,94.80
2023-03-07T07:53:05.273Z,94.60
2023-03-07T07:55:39.001Z,94.60
2023-03-07T07:58:09.456Z,94.70
2023-03-07T08:00:43.430Z,94.10
2023-03-07T08:03:14.456Z,94.50
2023-03-07T08:05:54.048Z,94.40
2023-03-07T08:08:24.873Z,94.40
2023-03-07T08:11:01.582Z,94.20
2023-03-07T08:13:33.172Z,94.10
2023-03-07T08:16:12.493Z,94.10
2023-03-07T08:18:43.341Z,93.90
2023-03-07T08:21:19.832Z,94.10
2023-03-07T08:23:52.750Z,93.90
2023-03-07T08:26:24.998Z,93.80
2023-03-07T08:28:55.782Z,93.60
2023-03-07T08:31:30.313Z,93.50
2023-03-07T08:34:03.893Z,92.90
2023-03-07T08:36:43.067Z,93.20
2023-03-07T08:39:13.831Z,93.20
2023-03-07T08:41:59.676Z,93.20
2023-03-07T08:44:34.855Z,93.20
2023-03-07T08:47:11.611Z,93.40
2023-03-07T08:49:45.645Z,93.40
2023-03-07T08:52:19.299Z,93.40
2023-03-07T08:54:49.989Z,93.30
2023-03-07T08:57:21.161Z,93.00
2023-03-07T08:59:51.744Z,92.80
2023-03-07T09:02:25.488Z,92.50
2023-03-07T09:04:57.169Z,92.80
2023-03-07T09:07:31.298Z,92.50
2023-03-07T09:10:04.493Z,92.50
2023-03-07T09:12:38.755Z,92.10
2023-03-07T09:15:11.975Z,91.90
2023-03-07T09:17:45.598Z,91.90
2023-03-07T09:20:19.306Z,91.70
2023-03-07T09:22:54.923Z,91.70
2023-03-07T09:25:27.195Z,91.50
2023-03-07T09:28:08.126Z,91.50
2023-03-07T09:30:39.792Z,91.60
2023-03-07T09:33:10.936Z,91.60
2023-03-07T09:35:42.387Z,91.40
2023-03-07T09:38:16.220Z,91.40
2023-03-07T09:40:50.157Z,91.40
2023-03-07T09:43:23.668Z,91.30
2023-03-07T09:46:23.556Z,91.30
2023-03-07T09:49:12.227Z,91.10
2023-03-07T09:51:45.365Z,91.00
2023-03-07T09:54:23.421Z,90.80
2023-03-07T09:56:57.891Z,90.70
2023-03-07T09:59:38.862Z,90.80
2023-03-07T10:02:19.325Z,90.60
2023-03-07T10:05:00.394Z,90.50
2023-03-07T10:07:31.585Z,90.50
2023-03-07T10:10:11.881Z,90.40
2023-03-07T10:13:07.818Z,90.50
2023-03-07T10:15:48.591Z,90.40
2023-03-07T10:18:45.805Z,90.30
2023-03-07T10:21:23.965Z,90.20
2023-03-07T10:24:11.916Z,90.40
2023-03-07T10:30:35.718Z,90.00
2023-03-07T10:33:29.623Z,88.60
2023-03-07T10:36:16.416Z,87.30
2023-03-07T10:39:36.801Z,87.30
2023-03-07T10:42:47.045Z,86.60
2023-03-07T10:48:51.141Z,86.20
2023-03-07T10:52:15.614Z,86.20
2023-03-07T10:54:55.688Z,86.00
2023-03-07T10:57:31.303Z,85.40
2023-03-07T11:00:43.211Z,85.20
2023-03-07T11:03:51.879Z,84.90
2023-03-07T11:06:40.415Z,85.20
2023-03-07T11:09:46.111Z,85.10
2023-03-07T11:12:25.140Z,84.40
2023-03-07T11:15:30.062Z,84.70
2023-03-07T11:18:05.498Z,84.60
2023-03-07T11:20:53.940Z,84.40
2023-03-07T11:23:32.055Z,84.20
2023-03-07T11:26:51.089Z,85.00
2023-03-07T11:29:47.291Z,84.00
2023-03-07T11:32:43.508Z,84.50
2023-03-07T11:36:30.281Z,84.60
2023-03-07T11:38:46.639Z,84.60
2023-03-07T11:41:38.551Z,84.40
2023-03-07T11:44:28.800Z,85.00
2023-03-07T11:47:38.056Z,84.50
2023-03-07T11:53:59.427Z,84.00
2023-03-07T11:56:40.398Z,84.30
2023-03-07T11:59:49.002Z,83.90
2023-03-07T12:02:46.476Z,83.70
2023-03-07T12:05:43.587Z,83.70
2023-03-07T12:08:38.080Z,83.90
2023-03-07T12:11:25.538Z,83.30
2023-03-07T12:14:09.343Z,82.90
2023-03-07T12:16:58.774Z,83.50
2023-03-07T12:19:56.707Z,83.20
2023-03-07T12:22:39.179Z,82.90
2023-03-07T12:25:29.128Z,83.20
2023-03-07T12:28:17.185Z,82.90
2023-03-07T12:31:00.778Z,83.40
2023-03-07T12:33:59.483Z,83.60
2023-03-07T12:36:42.321Z,83.80
2023-03-07T12:39:25.675Z,83.80
2023-03-07T12:42:06.560Z,84.00
2023-03-07T12:44:43.077Z,84.00
2023-03-07T12:47:25.490Z,84.00
2023-03-07T12:50:20.035Z,84.20
2023-03-07T12:53:01.435Z,84.60
2023-03-07T12:55:39.304Z,84.50
2023-03-07T12:58:21.614Z,84.60
2023-03-07T13:01:03.764Z,84.90
2023-03-07T13:03:48.287Z,84.80
2023-03-07T13:06:25.538Z,84.90
2023-03-07T13:09:06.194Z,85.30
2023-03-07T13:12:20.476Z,85.50
2023-03-07T13:14:55.619Z,85.10
2023-03-07T13:17:59.678Z,85.20
2023-03-07T13:20:48.993Z,85.00
2023-03-07T13:23:32.909Z,85.80
2023-03-07T13:26:23.940Z,86.20
2023-03-07T13:28:58.342Z,85.80
2023-03-07T13:31:56.500Z,87.10
2023-03-07T13:34:51.964Z,86.90
2023-03-07T13:37:54.550Z,87.30
2023-03-07T13:40:29.169Z,87.80
2023-03-07T13:43:10.333Z,88.00
2023-03-07T13:46:01.008Z,88.10
2023-03-07T13:49:11.148Z,88.40
2023-03-07T13:52:25.747Z,88.70
2023-03-07T13:55:35.789Z,88.90
2023-03-07T13:58:25.961Z,89.20
2023-03-07T14:01:06.976Z,89.20
2023-03-07T14:03:46.282Z,89.40
2023-03-07T14:06:40.760Z,89.50
2023-03-07T14:09:17.888Z,90.10
2023-03-07T14:12:05.159Z,90.50
2023-03-07T14:15:06.331Z,90.90
2023-03-07T14:18:00.149Z,91.50
2023-03-07T14:20:50.244Z,91.90
2023-03-07T14:23:49.536Z,92.40
2023-03-07T14:26:24.714Z,92.60
2023-03-07T14:29:01.953Z,92.80
2023-03-07T14:31:47.004Z,92.90
2023-03-07T14:34:29.485Z,93.20
2023-03-07T14:37:10.744Z,93.30
2023-03-07T14:39:52.094Z,93.40
2023-03-07T14:42:30.943Z,93.50
2023-03-07T14:45:20.656Z,93.60
2023-03-07T14:48:24.929Z,93.70
2023-03-07T14:50:59.397Z,93.70
2023-03-07T14:53:40.791Z,93.80
2023-03-07T14:56:13.586Z,93.80
2023-03-07T14:58:54.592Z,93.90
2023-03-07T15:01:25.648Z,93.90
2023-03-07T15:04:08.681Z,94.40
2023-03-07T15:06:48.196Z,94.20
2023-03-07T15:09:26.201Z,94.30
2023-03-07T15:12:06.410Z,94.40
2023-03-07T15:14:48.244Z,94.50
2023-03-07T15:17:21.988Z,94.60
2023-03-07T15:20:02.262Z,94.70
2023-03-07T15:22:39.747Z,95.00
2023-03-07T15:25:26.113Z,95.20
2023-03-07T15:28:23.785Z,95.30
2023-03-07T15:30:58.001Z,95.40
2023-03-07T15:33:37.214Z,95.40
2023-03-07T15:36:22.612Z,95.50
2023-03-07T15:42:32.009Z,95.70
2023-03-07T15:45:08.929Z,95.80
2023-03-07T15:47:42.155Z,95.80
2023-03-07T15:50:31.532Z,95.80
2023-03-07T15:53:11.041Z,95.90
2023-03-07T15:55:42.800Z,96.00
2023-03-07T15:58:23.087Z,96.00
2023-03-07T16:06:40.021Z,96.10
2023-03-07T16:13:09.601Z,96.10
2023-03-07T16:16:34.589Z,96.00
2023-03-07T16:19:39.599Z,96.00
2023-03-07T16:22:39.931Z,95.90
2023-03-07T16:25:40.681Z,95.80
2023-03-07T16:29:04.226Z,95.90
2023-03-07T16:32:08.636Z,95.90
2023-03-07T16:34:55.952Z,95.80
2023-03-07T16:37:41.050Z,95.80
2023-03-07T16:40:26.722Z,95.70
2023-03-07T16:43:03.612Z,95.70
2023-03-07T16:45:39.274Z,95.70
2023-03-07T16:53:47.645Z,95.70
2023-03-07T16:56:24.409Z,95.70
2023-03-07T16:58:57.755Z,95.70
2023-03-07T17:01:43.646Z,95.70
2023-03-07T17:04:15.164Z,95.70
2023-03-07T17:06:50.627Z,95.60
2023-03-07T17:09:28.515Z,95.70
2023-03-07T17:11:59.651Z,95.70
2023-03-07T17:14:36.088Z,95.80
2023-03-07T17:17:16.265Z,95.80
2023-03-07T17:19:54.394Z,95.80
2023-03-07T17:22:25.610Z,95.80
2023-03-07T17:24:56.091Z,95.80
2023-03-07T17:27:28.683Z,96.10
2023-03-07T17:29:59.895Z,95.90
2023-03-07T17:32:34.106Z,95.80
2023-03-07T17:35:05.010Z,95.80
2023-03-07T17:37:36.204Z,95.80
2023-03-07T17:40:13.664Z,95.90
2023-03-07T17:42:45.599Z,95.90
2023-03-07T17:45:16.942Z,95.90
2023-03-07T17:47:54.170Z,96.00
2023-03-07T17:50:27.333Z,96.10
2023-03-07T17:52:59.063Z,96.20
2023-03-07T17:55:30.576Z,96.30
2023-03-07T17:58:02.366Z,96.40
2023-03-07T18:00:33.680Z,96.80
2023-03-07T18:03:08.229Z,96.60
2023-03-07T18:05:41.818Z,96.80
2023-03-07T18:08:15.726Z,97.00
2023-03-07T18:10:48.858Z,97.20
2023-03-07T18:13:24.503Z,97.30
2023-03-07T18:16:03.481Z,97.40
2023-03-07T18:18:40.219Z,97.70
2023-03-07T18:21:22.272Z,97.80
2023-03-07T18:23:55.019Z,98.00
2023-03-07T18:26:26.158Z,98.20
2023-03-07T18:28:58.325Z,98.60
2023-03-07T18:31:31.062Z,98.40
2023-03-07T18:37:20.800Z,98.60
2023-03-07T18:39:52.598Z,98.90
2023-03-07T18:42:23.744Z,98.90
2023-03-07T18:44:55.493Z,99.00
2023-03-07T18:47:27.191Z,99.20
2023-03-07T18:50:05.283Z,99.30
2023-03-07T18:52:36.127Z,99.30
2023-03-07T18:55:08.227Z,99.60
2023-03-07T18:57:38.975Z,99.60
2023-03-07T19:00:15.451Z,99.80
2023-03-07T19:02:46.210Z,99.80
2023-03-07T19:05:20.353Z,99.90
2023-03-07T19:12:10.734Z,99.90
2023-03-07T19:16:44.381Z,99.90
2023-03-07T19:19:12.285Z,99.90
2023-03-07T19:21:48.315Z,99.90
2023-03-07T19:28:13.228Z,99.90
2023-03-07T19:30:44.458Z,99.90
2023-03-07T19:33:17.372Z,99.90
2023-03-07T19:36:03.440Z,99.90
2023-03-07T19:38:39.862Z,99.90
2023-03-07T19:41:15.397Z,99.90
2023-03-07T19:44:12.316Z,99.90
2023-03-07T19:50:41.285Z,99.90
2023-03-07T19:57:16.398Z,99.90
2023-03-07T19:59:47.919Z,99.90
2023-03-07T20:02:29.708Z,99.90
2023-03-07T20:08:59.590Z,99.90
2023-03-07T20:11:34.267Z,99.90
2023-03-07T20:14:11.185Z,99.90
2023-03-07T20:16:42.421Z,99.90
2023-03-07T20:22:41.667Z,99.90
2023-03-07T20:25:13.447Z,99.90
2023-03-07T20:27:45.287Z,99.90
2023-03-07T20:30:21.009Z,99.90
2023-03-07T20:33:06.265Z,99.90
2023-03-07T20:39:07.828Z,99.90
2023-03-07T20:41:41.407Z,99.90
2023-03-07T20:44:17.693Z,99.90
2023-03-07T20:50:43.242Z,99.90
2023-03-07T20:53:15.164Z,99.90
2023-03-07T20:55:51.260Z,99.90
2023-03-07T20:58:22.419Z,99.90
2023-03-07T21:00:56.475Z,99.90
2023-03-07T21:03:36.861Z,99.90
2023-03-07T21:06:09.129Z,99.90
2023-03-07T21:08:47.611Z,99.90
2023-03-07T21:11:25.986Z,99.90
2023-03-07T21:13:57.768Z,99.90
2023-03-07T21:16:30.172Z,99.90
2023-03-07T21:19:07.519Z,99.90
2023-03-07T21:21:41.336Z,99.90
2023-03-07T21:24:15.940Z,99.90
2023-03-07T21:26:47.425Z,99.90
2023-03-07T21:29:18.450Z,99.90
2023-03-07T21:31:50.397Z,99.90
2023-03-07T21:34:28.969Z,99.90
2023-03-07T21:37:00.223Z,99.90
2023-03-07T21:39:31.444Z,99.90
2023-03-07T21:42:04.445Z,99.90
2023-03-07T21:44:36.842Z,99.90
2023-03-07T21:47:08.164Z,99.90
2023-03-07T21:49:41.198Z,99.90
2023-03-07T21:52:12.337Z,99.90
2023-03-07T21:54:44.278Z,99.90
2023-03-07T21:57:18.478Z,99.90
2023-03-07T21:59:56.910Z,99.90
2023-03-07T22:02:28.379Z,99.90
2023-03-07T22:05:03.613Z,99.90
2023-03-07T22:07:37.345Z,99.90
2023-03-07T22:10:09.856Z,99.90
2023-03-07T22:12:41.456Z,99.90
2023-03-07T22:15:17.840Z,99.90
2023-03-07T22:17:48.905Z,99.90
2023-03-07T22:20:23.194Z,99.90
2023-03-07T22:22:56.984Z,99.90
2023-03-07T22:25:27.678Z,99.90
2023-03-07T22:27:59.158Z,99.90
2023-03-07T22:30:32.108Z,99.90
2023-03-07T22:33:07.276Z,99.90
2023-03-07T22:35:44.223Z,99.90
2023-03-07T22:38:16.841Z,99.90
2023-03-07T22:40:50.010Z,99.90
2023-03-07T22:43:21.803Z,99.90
2023-03-07T22:45:53.511Z,99.90
2023-03-07T22:48:27.035Z,99.90
2023-03-07T22:51:00.787Z,99.90
2023-03-07T22:53:32.638Z,99.90
2023-03-07T22:56:04.059Z,99.90
2023-03-07T22:58:37.147Z,99.90
2023-03-07T23:01:14.742Z,99.90
2023-03-07T23:03:47.739Z,99.90
2023-03-07T23:06:23.729Z,99.90
2023-03-07T23:08:56.669Z,99.90
2023-03-07T23:11:31.669Z,99.90
2023-03-07T23:14:05.101Z,99.90
2023-03-07T23:16:36.680Z,99.90
2023-03-07T23:19:08.481Z,99.90
2023-03-07T23:21:42.257Z,99.90
2023-03-07T23:24:14.461Z,99.90
2023-03-07T23:26:45.426Z,99.90
2023-03-07T23:29:17.600Z,99.90
2023-03-07T23:31:49.319Z,99.90
2023-03-07T23:34:21.934Z,99.90
2023-03-07T23:36:55.343Z,99.90
2023-03-07T23:39:26.782Z,99.90
2023-03-07T23:41:57.691Z,99.90
2023-03-07T23:44:32.288Z,99.90
2023-03-07T23:47:03.714Z,99.90
2023-03-07T23:49:38.450Z,99.90
2023-03-07T23:52:13.409Z,99.90
2023-03-07T23:54:49.571Z,99.90
2023-03-07T23:57:23.261Z,99.90
2023-03-07T23:59:54.321Z,99.90
